Time;durP1;ratioP1;P1;durP2;ratioP2;P2;SDS_P1;SDS_P2;PMS_P1;PMS_P2;Temp;Humidity;BMP_temperature;BMP_pressure;BME280_temperature;BME280_humidity;BME280_pressure;Samples;Min_cycle;Max_cycle;Signal;HPM_P1;HPM_P2
2023/02/08 00:00:12;;;;;;;8.50;5.78;;;;;;;16.33;48.40;103998.09;6101636;23;20007;-82
2023/02/08 00:02:37;;;;;;;9.90;6.57;;;;;;;16.34;48.38;104008.56;6126335;23;20002;-81
2023/02/08 00:05:04;;;;;;;9.00;6.20;;;;;;;16.34;48.40;104005.97;6101534;23;20096;-79
2023/02/08 00:07:29;;;;;;;7.60;5.43;;;;;;;16.33;48.73;104003.31;6127115;23;20006;-80
2023/02/08 00:09:54;;;;;;;9.95;5.95;;;;;;;16.33;48.61;104000.69;6077577;23;20069;-80
2023/02/08 00:12:20;;;;;;;9.93;6.22;;;;;;;16.33;48.26;103995.50;6101063;23;20018;-80
2023/02/08 00:14:45;;;;;;;8.13;5.88;;;;;;;16.34;48.09;103994.69;6125938;23;20464;-80
2023/02/08 00:17:10;;;;;;;9.00;6.00;;;;;;;16.34;48.60;103992.09;6101325;23;20061;-81
2023/02/08 00:19:36;;;;;;;7.60;5.60;;;;;;;16.33;48.43;103983.44;6125949;23;20036;-79
2023/02/08 00:22:01;;;;;;;7.90;5.65;;;;;;;16.34;48.33;103992.97;6126014;23;20014;-80
2023/02/08 00:24:26;;;;;;;9.90;5.45;;;;;;;16.35;48.29;103991.25;6101436;23;20020;-79
2023/02/08 00:26:52;;;;;;;7.00;5.75;;;;;;;16.35;48.24;103988.66;6101785;23;19998;-80
2023/02/08 00:29:18;;;;;;;7.13;5.22;;;;;;;16.35;48.45;103986.06;6101786;23;20076;-79
2023/02/08 00:31:43;;;;;;;7.65;5.60;;;;;;;16.34;48.57;103977.38;6125900;23;20061;-83
2023/02/08 00:34:09;;;;;;;9.48;5.50;;;;;;;16.35;48.53;103979.19;6101295;23;20009;-81
2023/02/08 00:36:34;;;;;;;7.90;5.47;;;;;;;16.34;48.38;103980.00;6101656;23;20006;-81
2023/02/08 00:38:59;;;;;;;8.63;5.57;;;;;;;16.35;48.50;103983.47;6101295;23;20351;-84
2023/02/08 00:41:25;;;;;;;8.35;5.50;;;;;;;16.35;48.18;103980.88;6077518;23;20040;-83
2023/02/08 00:43:50;;;;;;;7.47;5.45;;;;;;;16.35;48.18;103992.19;6125814;23;20458;-84
2023/02/08 00:46:15;;;;;;;8.77;4.82;;;;;;;16.34;48.36;103990.38;6101763;23;20010;-83
2023/02/08 00:48:41;;;;;;;7.47;5.30;;;;;;;16.34;48.33;104000.78;6101562;23;20025;-83
2023/02/08 00:51:10;;;;;;;6.93;5.07;;;;;;;16.35;48.41;103999.06;6101632;23;20014;-85
2023/02/08 00:53:37;;;;;;;7.20;5.10;;;;;;;16.35;48.22;104001.66;6125973;23;20017;-84
2023/02/08 00:56:03;;;;;;;6.45;5.15;;;;;;;16.34;48.42;103990.38;6125431;23;20053;-79
2023/02/08 00:58:29;;;;;;;6.18;4.88;;;;;;;16.35;48.14;103999.06;6077300;23;20050;-80
2023/02/08 01:00:54;;;;;;;6.65;4.32;;;;;;;16.35;48.48;103996.47;6101330;23;20054;-84
2023/02/08 01:03:21;;;;;;;5.88;4.72;;;;;;;16.35;48.31;103992.19;6125672;23;20008;-82
2023/02/08 01:05:47;;;;;;;8.27;5.30;;;;;;;16.34;48.38;103995.59;6077353;23;20025;-84
2023/02/08 01:08:12;;;;;;;6.43;4.60;;;;;;;16.35;48.35;103999.06;6101902;23;20088;-85
2023/02/08 01:10:38;;;;;;;6.45;4.57;;;;;;;16.35;48.07;103996.47;6053497;23;20069;-83
2023/02/08 01:13:03;;;;;;;5.75;4.38;;;;;;;16.35;48.16;103993.88;6077297;23;20014;-83
2023/02/08 01:15:29;;;;;;;5.85;4.53;;;;;;;16.35;48.10;103991.25;6077384;23;20093;-84
2023/02/08 01:17:55;;;;;;;5.85;4.35;;;;;;;16.35;48.46;103991.25;6101482;23;20013;-81
2023/02/08 01:20:21;;;;;;;7.90;4.20;;;;;;;16.35;48.25;103991.25;6127154;23;20352;-81
2023/02/08 01:22:46;;;;;;;6.55;4.32;;;;;;;16.35;48.09;103993.88;6077612;23;20061;-82
2023/02/08 01:25:12;;;;;;;5.70;4.07;;;;;;;16.35;48.24;103993.88;6055243;23;20021;-81
2023/02/08 01:27:37;;;;;;;5.55;4.15;;;;;;;16.35;48.09;103992.19;6079255;23;20454;-82
2023/02/08 01:30:03;;;;;;;6.05;4.55;;;;;;;16.35;48.16;103993.88;6055038;23;20006;-80
2023/02/08 01:32:29;;;;;;;6.05;4.40;;;;;;;16.35;48.14;103986.97;6127585;23;20009;-82
2023/02/08 01:34:54;;;;;;;6.05;4.35;;;;;;;16.35;48.32;103983.47;6078772;23;20391;-81
2023/02/08 01:37:19;;;;;;;5.50;4.38;;;;;;;16.34;48.04;103974.78;6054902;23;20009;-82
2023/02/08 01:39:45;;;;;;;5.38;4.10;;;;;;;16.34;48.29;103981.72;6078555;23;20037;-82
2023/02/08 01:42:15;;;;;;;6.97;4.35;;;;;;;16.35;48.27;103980.88;6078429;23;20020;-81
2023/02/08 01:45:15;;;;;;;5.95;4.07;;;;;;;16.35;48.33;103975.66;6108303;23;20104;-80
2023/02/08 01:47:46;;;;;;;4.32;3.70;;;;;;;16.35;48.15;103973.06;6143632;23;20049;-82
2023/02/08 01:50:13;;;;;;;4.45;3.70;;;;;;;16.35;48.08;103978.28;6141152;23;20079;-82
2023/02/08 01:52:38;;;;;;;5.18;4.13;;;;;;;16.34;48.07;103969.59;6116096;23;20021;-81
2023/02/08 01:55:12;;;;;;;4.70;3.75;;;;;;;16.35;48.24;103967.88;6129021;23;20006;-83
2023/02/08 01:57:37;;;;;;;;;;;;;;;16.34;48.40;103964.41;6129405;23;20018;-83
2023/02/08 02:00:12;;;;;;;5.40;3.90;;;;;;;16.35;48.33;103968.78;6102840;23;20003;-86
2023/02/08 02:02:39;;;;;;;5.55;3.83;;;;;;;16.35;48.31;103965.28;6127440;23;20014;-84
2023/02/08 02:05:05;;;;;;;5.25;3.92;;;;;;;16.35;48.30;103965.28;6127904;23;20037;-82
2023/02/08 02:07:31;;;;;;;5.72;3.50;;;;;;;16.35;48.31;103962.69;6103189;23;20009;-83
2023/02/08 02:10:14;;;;;;;4.97;3.60;;;;;;;16.34;47.95;103954.00;6103360;23;20065;-82
2023/02/08 02:12:41;;;;;;;4.35;3.55;;;;;;;16.35;48.18;103954.88;6127319;23;20012;-82
2023/02/08 02:15:08;;;;;;;5.32;3.40;;;;;;;16.35;48.27;103947.09;6129092;23;20005;-82
2023/02/08 02:17:36;;;;;;;4.53;3.65;;;;;;;16.34;48.17;103950.53;6127751;23;20431;-82
2023/02/08 02:20:40;;;;;;;4.10;3.40;;;;;;;16.35;48.26;103957.47;6127433;23;20006;-83
2023/02/08 02:23:15;;;;;;;4.15;2.80;;;;;;;16.34;48.12;103951.41;6129037;23;20403;-81
2023/02/08 02:26:06;;;;;;;4.40;3.13;;;;;;;16.34;48.12;103951.41;6128347;23;20010;-81
2023/02/08 02:28:52;;;;;;;4.25;3.33;;;;;;;16.34;48.18;103941.00;6151335;23;20009;-79
2023/02/08 02:31:39;;;;;;;4.43;3.08;;;;;;;16.35;48.30;103947.09;6151232;23;20491;-81
2023/02/08 02:34:22;;;;;;;4.38;3.35;;;;;;;16.35;48.22;103952.28;6151230;23;20006;-80
2023/02/08 02:37:10;;;;;;;4.97;3.55;;;;;;;16.34;48.17;103950.53;6128351;23;20013;-81
2023/02/08 02:39:57;;;;;;;4.72;3.35;;;;;;;16.35;48.06;103954.88;6126470;23;20002;-81
2023/02/08 02:45:48;;;;;;;3.78;3.13;;;;;;;16.34;48.23;103951.41;6128149;23;20063;-81
2023/02/08 02:48:37;;;;;;;4.70;3.00;;;;;;;16.33;48.26;103941.84;6126332;23;20542;-79
2023/02/08 02:51:12;;;;;;;4.05;3.10;;;;;;;16.34;48.16;103940.13;6126484;23;20431;-81
2023/02/08 02:53:47;;;;;;;3.63;2.90;;;;;;;16.33;48.01;103939.25;6126279;23;20045;-80
2023/02/08 02:56:26;;;;;;;3.55;2.80;;;;;;;16.33;47.86;103936.66;6151086;23;20010;-82
2023/02/08 02:58:55;;;;;;;4.03;3.10;;;;;;;16.33;48.30;103941.84;6126271;23;20013;-82
2023/02/08 03:01:24;;;;;;;4.22;3.10;;;;;;;16.33;48.04;103935.72;6127047;23;20012;-82
2023/02/08 03:03:51;;;;;;;3.63;2.80;;;;;;;16.34;48.12;103940.13;6106831;23;20012;-80
2023/02/08 03:06:39;;;;;;;3.28;2.78;;;;;;;16.33;48.11;103941.84;6131210;23;20013;-81
2023/02/08 03:09:17;;;;;;;4.18;2.83;;;;;;;16.33;48.25;103939.25;6152306;23;20101;-82
2023/02/08 03:11:56;;;;;;;3.85;2.72;;;;;;;16.33;48.17;103938.31;6129862;23;20384;-82
2023/02/08 03:14:37;;;;;;;3.78;2.80;;;;;;;16.34;48.19;103932.31;6127897;23;20006;-82
2023/02/08 03:17:18;;;;;;;3.92;2.50;;;;;;;16.33;48.14;103927.94;6153081;23;20013;-84
2023/02/08 03:19:50;;;;;;;4.25;2.80;;;;;;;16.33;48.05;103931.44;6152593;23;20081;-82
2023/02/08 03:22:34;;;;;;;3.53;2.65;;;;;;;16.34;48.15;103934.94;6152747;23;20009;-82
2023/02/08 03:25:08;;;;;;;3.28;2.40;;;;;;;16.33;48.10;103927.94;6128918;23;19998;-80
2023/02/08 03:27:48;;;;;;;3.35;2.70;;;;;;;16.33;48.11;103922.72;6127618;23;20029;-82
2023/02/08 03:30:29;;;;;;;3.83;2.53;;;;;;;16.32;48.05;103927.06;6127933;23;20127;-82
2023/02/08 03:33:04;;;;;;;3.13;2.40;;;;;;;16.33;48.09;103927.94;6126240;23;20010;-83
2023/02/08 03:35:39;;;;;;;3.42;2.75;;;;;;;16.32;48.01;103929.66;6151348;23;20002;-83
2023/02/08 03:38:12;;;;;;;3.03;2.47;;;;;;;16.34;48.12;103932.31;6128529;23;20002;-83
2023/02/08 03:40:48;;;;;;;2.95;2.25;;;;;;;16.32;48.09;103926.16;6126760;23;20045;-83
2023/02/08 03:43:22;;;;;;;3.33;2.50;;;;;;;16.32;48.24;103932.25;6126705;23;20006;-81
2023/02/08 03:46:05;;;;;;;3.28;2.38;;;;;;;16.34;48.17;103929.72;6126597;23;20006;-80
2023/02/08 03:48:35;;;;;;;3.92;2.58;;;;;;;16.33;47.97;103933.13;6127837;23;20343;-81
2023/02/08 03:51:05;;;;;;;3.58;2.67;;;;;;;16.33;47.96;103934.03;6126739;23;20006;-83
2023/02/08 03:53:37;;;;;;;3.10;2.28;;;;;;;16.33;47.98;103935.72;6102424;23;20014;-81
2023/02/08 03:56:11;;;;;;;3.78;2.70;;;;;;;16.32;48.17;103932.25;6151067;23;20375;-80
2023/02/08 03:58:49;;;;;;;3.20;2.42;;;;;;;16.33;47.98;103927.94;6126353;23;20331;-82
2023/02/08 04:01:19;;;;;;;3.22;2.40;;;;;;;16.33;47.93;103930.53;6126980;23;20077;-82
2023/02/08 04:03:48;;;;;;;2.95;2.30;;;;;;;16.32;48.03;103927.06;6126231;23;20010;-82
2023/02/08 04:06:15;;;;;;;2.80;2.22;;;;;;;16.32;48.12;103932.25;6126924;23;20009;-80
2023/02/08 04:08:40;;;;;;;3.10;2.10;;;;;;;16.32;47.96;103921.84;6102165;23;20017;-82
2023/02/08 04:11:05;;;;;;;3.88;2.60;;;;;;;16.32;48.00;103926.16;6077774;23;20088;-82
2023/02/08 04:13:31;;;;;;;3.15;2.45;;;;;;;16.33;48.12;103920.13;6077867;23;20017;-82
2023/02/08 04:15:56;;;;;;;3.45;2.40;;;;;;;16.32;48.05;103914.06;6126461;23;20319;-81
2023/02/08 04:18:21;;;;;;;3.22;2.40;;;;;;;16.33;48.04;103914.94;6127735;23;20002;-81
2023/02/08 04:20:47;;;;;;;2.47;2.00;;;;;;;16.32;47.97;103911.47;6102051;23;20037;-82
2023/02/08 04:23:12;;;;;;;3.25;2.28;;;;;;;16.32;47.85;103907.97;6102588;23;20330;-82
2023/02/08 04:25:38;;;;;;;2.55;2.20;;;;;;;16.33;47.86;103904.53;6079111;23;20021;-83
2023/02/08 04:28:03;;;;;;;3.30;2.50;;;;;;;16.33;47.94;103902.84;6082620;23;20435;-83
2023/02/08 04:30:28;;;;;;;2.88;1.92;;;;;;;16.32;48.03;103893.25;6119011;23;20085;-81
2023/02/08 04:32:54;;;;;;;2.60;2.00;;;;;;;16.32;47.80;103895.88;6118872;23;20010;-81
2023/02/08 04:35:19;;;;;;;2.30;1.90;;;;;;;16.32;47.94;103887.19;6142696;23;20320;-82
2023/02/08 04:37:45;;;;;;;2.70;2.00;;;;;;;16.32;47.79;103889.78;6140446;23;20017;-82
2023/02/08 04:40:10;;;;;;;3.33;2.22;;;;;;;16.33;47.95;103896.75;6084382;23;20092;-82
2023/02/08 04:42:36;;;;;;;2.42;2.03;;;;;;;16.33;48.03;103901.94;6080083;23;20375;-84
2023/02/08 04:45:01;;;;;;;3.08;2.33;;;;;;;16.32;47.86;103895.88;6105600;23;20006;-86
2023/02/08 04:47:26;;;;;;;3.25;2.22;;;;;;;16.33;47.87;103902.84;6102427;23;20010;-84
2023/02/08 04:49:52;;;;;;;3.17;2.05;;;;;;;16.33;47.98;103907.16;6103802;23;20131;-83
2023/02/08 04:52:17;;;;;;;3.67;2.30;;;;;;;16.33;48.03;103915.84;6079190;23;20431;-84
2023/02/08 04:54:42;;;;;;;3.33;2.20;;;;;;;16.33;48.05;103918.44;6126939;23;20037;-84
2023/02/08 04:57:12;;;;;;;2.95;2.10;;;;;;;16.32;48.14;103911.47;6102120;23;20009;-83
2023/02/08 04:59:37;;;;;;;2.92;2.00;;;;;;;16.33;48.02;103913.25;6129492;23;20021;-84
2023/02/08 05:02:03;;;;;;;2.80;2.33;;;;;;;16.32;48.04;103907.97;6080411;23;20014;-84
2023/02/08 05:04:29;;;;;;;3.97;2.15;;;;;;;16.33;47.98;103904.53;6104200;23;20090;-82
2023/02/08 05:06:55;;;;;;;3.35;2.40;;;;;;;16.32;48.06;103900.19;6104349;23;20006;-81
2023/02/08 05:09:20;;;;;;;2.40;2.10;;;;;;;16.33;47.98;103907.16;6079553;23;20331;-85
2023/02/08 05:11:45;;;;;;;3.13;2.10;;;;;;;16.33;48.12;103901.94;6103924;23;20081;-80
2023/02/08 05:14:11;;;;;;;2.95;2.30;;;;;;;16.32;48.04;103906.25;6079924;23;20013;-85
2023/02/08 05:16:36;;;;;;;2.45;1.83;;;;;;;16.33;48.02;103901.94;6103760;23;20005;-82
2023/02/08 05:19:02;;;;;;;3.50;1.90;;;;;;;16.32;47.98;103901.06;6055450;23;20026;-84
2023/02/08 05:21:27;;;;;;;2.55;1.95;;;;;;;16.33;48.00;103896.75;6128964;23;20427;-84
2023/02/08 05:23:53;;;;;;;3.13;2.00;;;;;;;16.32;47.90;103889.78;6078932;23;20005;-82
2023/02/08 05:26:19;;;;;;;2.88;1.77;;;;;;;16.31;47.86;103882.78;6103183;23;20006;-83
2023/02/08 05:28:44;;;;;;;3.38;1.85;;;;;;;16.32;48.04;103882.00;6129085;23;20006;-83
2023/02/08 05:31:18;;;;;;;3.30;2.13;;;;;;;16.32;47.95;103887.19;6079031;23;20327;-82
2023/02/08 05:33:43;;;;;;;2.50;1.90;;;;;;;16.32;48.05;103887.19;6129170;23;20411;-83
2023/02/08 05:36:09;;;;;;;2.55;1.90;;;;;;;16.32;47.82;103892.38;6079348;23;20006;-84
2023/02/08 05:38:34;;;;;;;2.28;2.00;;;;;;;16.31;48.04;103888.91;6103195;23;20098;-83
2023/02/08 05:41:00;;;;;;;2.70;1.90;;;;;;;16.30;48.00;103884.50;6103516;23;20013;-82
2023/02/08 05:43:25;;;;;;;2.90;1.98;;;;;;;16.31;47.96;103882.78;6128981;23;20447;-85
2023/02/08 05:45:51;;;;;;;2.67;2.35;;;;;;;16.32;47.92;103882.00;6127490;23;20080;-83
2023/02/08 05:48:16;;;;;;;2.50;1.88;;;;;;;16.31;47.80;103877.59;6079594;23;20492;-84
2023/02/08 05:50:42;;;;;;;2.55;1.80;;;;;;;16.31;47.89;103878.50;6055594;23;20029;-84
2023/02/08 05:53:07;;;;;;;2.63;1.95;;;;;;;16.31;47.88;103878.50;6079326;23;20013;-82
2023/02/08 05:55:33;;;;;;;2.85;1.98;;;;;;;16.30;47.87;103876.72;6078645;23;20041;-82
2023/02/08 05:57:58;;;;;;;3.03;1.75;;;;;;;16.30;47.83;103881.91;6078928;23;20049;-81
2023/02/08 06:00:24;;;;;;;2.63;1.90;;;;;;;16.31;47.82;103881.09;6079015;23;20005;-83
2023/02/08 06:02:49;;;;;;;2.42;2.00;;;;;;;16.32;47.89;103874.19;6102743;23;20085;-84
2023/02/08 06:05:14;;;;;;;2.22;1.70;;;;;;;16.32;47.90;103874.19;6102585;23;20064;-79
2023/02/08 06:07:40;;;;;;;2.38;1.90;;;;;;;16.32;47.86;103874.19;6078678;23;20427;-84
2023/02/08 06:10:06;;;;;;;2.67;1.80;;;;;;;16.33;47.72;103883.75;6078365;23;20016;-79
2023/02/08 06:12:31;;;;;;;2.75;1.90;;;;;;;16.32;47.66;103875.06;6128359;23;20029;-83
2023/02/08 06:14:57;;;;;;;3.28;1.98;;;;;;;16.34;47.87;103877.75;6078438;23;20022;-87
2023/02/08 06:17:22;;;;;;;2.78;1.77;;;;;;;16.34;47.79;103875.16;6054837;23;20013;-84
2023/02/08 06:19:58;;;;;;;3.97;1.80;;;;;;;16.34;47.78;103877.75;6129289;23;20037;-83
2023/02/08 06:22:23;;;;;;;2.58;1.77;;;;;;;16.34;47.62;103883.81;6080101;23;20045;-78
2023/02/08 06:24:49;;;;;;;4.00;2.10;;;;;;;16.33;47.92;103869.06;6102289;23;20082;-80
2023/02/08 06:27:14;;;;;;;2.80;2.33;;;;;;;16.35;47.87;103867.44;6078508;23;20048;-80
2023/02/08 06:29:40;;;;;;;2.85;2.00;;;;;;;16.34;48.00;103868.22;6078403;23;20063;-84
2023/02/08 06:32:05;;;;;;;2.95;1.88;;;;;;;16.34;47.95;103870.84;6078329;23;20435;-83
2023/02/08 06:34:30;;;;;;;2.50;1.95;;;;;;;16.35;47.88;103874.31;6078251;23;20010;-84
2023/02/08 06:36:58;;;;;;;3.17;1.92;;;;;;;16.35;47.92;103877.81;6102346;23;20056;-81
2023/02/08 06:39:24;;;;;;;3.17;2.10;;;;;;;16.34;47.96;103881.22;6055800;23;20006;-85
2023/02/08 06:41:49;;;;;;;3.35;2.30;;;;;;;16.34;47.75;103875.16;6054976;23;20010;-84
2023/02/08 06:44:14;;;;;;;3.42;1.88;;;;;;;16.33;48.04;103874.28;6055055;23;20006;-82
2023/02/08 06:46:40;;;;;;;8.43;2.08;;;;;;;16.34;47.93;103873.44;6078617;23;20375;-81
2023/02/08 06:49:05;;;;;;;3.15;1.88;;;;;;;16.34;48.13;103864.75;6078423;23;20088;-81
2023/02/08 06:51:31;;;;;;;2.78;1.88;;;;;;;16.36;48.04;103865.72;6102272;23;20316;-81
2023/02/08 06:53:56;;;;;;;10.93;3.92;;;;;;;16.37;48.02;103868.34;6078401;23;20010;-83
2023/02/08 06:56:21;;;;;;;6.50;3.55;;;;;;;16.38;47.90;103856.28;6078614;23;20010;-82
2023/02/08 06:58:47;;;;;;;8.68;4.05;;;;;;;16.38;48.25;103854.56;6107503;23;20033;-82
2023/02/08 07:01:13;;;;;;;6.45;3.15;;;;;;;16.39;48.12;103855.44;6101881;23;20013;-81
2023/02/08 07:03:39;;;;;;;8.73;3.92;;;;;;;16.40;48.27;103862.44;6127739;23;20474;-81
2023/02/08 07:06:04;;;;;;;9.88;3.40;;;;;;;16.40;48.06;103858.13;6101914;23;20001;-81
2023/02/08 07:08:30;;;;;;;7.65;3.50;;;;;;;16.42;48.34;103865.97;6126781;23;20006;-82
2023/02/08 07:10:56;;;;;;;6.18;3.58;;;;;;;16.41;48.49;103865.06;6126263;23;20012;-80
2023/02/08 07:13:21;;;;;;;10.63;3.50;;;;;;;16.41;48.38;103862.47;6102357;23;20005;-82
2023/02/08 07:15:46;;;;;;;6.28;2.92;;;;;;;16.41;48.33;103865.06;6113694;23;20014;-83
2023/02/08 07:18:12;;;;;;;6.53;3.15;;;;;;;16.41;48.31;103872.00;6117404;23;20045;-80
2023/02/08 07:20:37;;;;;;;7.75;3.80;;;;;;;16.41;48.31;103866.78;6088477;23;20025;-81
2023/02/08 07:23:02;;;;;;;4.35;2.72;;;;;;;16.41;48.20;103866.78;6109874;23;20045;-80
2023/02/08 07:25:28;;;;;;;5.18;3.15;;;;;;;16.41;48.10;103865.06;6110534;23;20025;-81
2023/02/08 07:27:53;;;;;;;6.68;3.20;;;;;;;16.43;48.30;103872.94;6127719;23;20041;-81
2023/02/08 07:30:19;;;;;;;5.55;3.35;;;;;;;16.42;48.37;103868.59;6102934;23;20093;-82
2023/02/08 07:32:44;;;;;;;5.07;2.65;;;;;;;16.42;48.21;103864.28;6126863;23;20062;-82
2023/02/08 07:35:09;;;;;;;7.32;3.10;;;;;;;16.43;48.03;103859.94;6126432;23;20010;-80
2023/02/08 07:37:35;;;;;;;4.47;2.72;;;;;;;16.43;48.13;103868.63;6077966;23;20014;-81
2023/02/08 07:40:00;;;;;;;4.18;2.72;;;;;;;16.44;47.83;103867.81;6101920;23;20006;-82
2023/02/08 07:42:26;;;;;;;3.72;2.42;;;;;;;16.45;48.08;103864.38;6126393;23;20010;-80
2023/02/08 07:44:51;;;;;;;7.75;2.83;;;;;;;16.45;48.07;103864.38;6101867;23;20017;-81
2023/02/08 07:47:17;;;;;;;4.28;2.78;;;;;;;16.46;47.98;103857.47;6150792;23;20017;-81
2023/02/08 07:49:42;;;;;;;5.55;2.85;;;;;;;16.45;47.87;103861.78;6077466;23;20009;-81
2023/02/08 07:52:07;;;;;;;4.82;2.78;;;;;;;16.47;47.94;103863.59;6101879;23;20014;-81
2023/02/08 07:54:33;;;;;;;5.53;2.53;;;;;;;16.46;48.22;103857.47;6125864;23;20006;-82
2023/02/08 07:56:58;;;;;;;3.83;2.53;;;;;;;16.47;47.82;103856.66;6126426;23;20034;-82
2023/02/08 07:59:24;;;;;;;5.15;2.75;;;;;;;16.46;47.80;103857.47;6125984;23;20018;-80
2023/02/08 08:01:49;;;;;;;6.00;2.90;;;;;;;16.47;47.69;103864.47;6077570;23;20010;-80
2023/02/08 08:04:15;;;;;;;5.57;2.55;;;;;;;16.47;47.79;103858.38;6101873;23;20009;-87
2023/02/08 08:06:40;;;;;;;3.13;2.42;;;;;;;16.48;47.65;103866.22;6103444;23;20006;-82
2023/02/08 08:09:06;;;;;;;4.97;2.47;;;;;;;16.51;47.71;103860.28;6078475;23;20013;-85
2023/02/08 08:11:31;;;;;;;3.83;2.60;;;;;;;16.59;47.76;103853.69;6102274;23;20040;-86
2023/02/08 08:13:56;;;;;;;4.03;2.25;;;;;;;16.64;47.52;103850.47;6126392;23;20089;-85
2023/02/08 08:16:22;;;;;;;3.92;2.40;;;;;;;16.67;47.79;103848.00;6126378;23;20093;-85
2023/02/08 08:18:47;;;;;;;4.57;2.55;;;;;;;16.71;47.81;103863.75;6077897;23;20037;-85
2023/02/08 08:21:14;;;;;;;6.28;2.30;;;;;;;16.73;47.42;103859.50;6102061;23;20089;-86
2023/02/08 08:23:39;;;;;;;4.15;2.60;;;;;;;16.75;47.55;103853.53;6126195;23;20990;-82
2023/02/08 08:26:18;;;;;;;4.40;2.85;;;;;;;16.76;47.17;103850.09;6125937;23;20101;-82
2023/02/08 08:28:45;;;;;;;4.78;2.60;;;;;;;16.77;47.47;103840.59;6121752;23;20384;-82
2023/02/08 08:31:17;;;;;;;5.05;2.47;;;;;;;16.79;47.44;103842.44;6127270;23;20005;-86
2023/02/08 08:33:42;;;;;;;3.60;2.30;;;;;;;16.82;47.18;103837.38;6151964;23;20006;-84
2023/02/08 08:36:08;;;;;;;4.35;2.30;;;;;;;16.89;47.16;103828.13;6128918;23;20017;-84
2023/02/08 08:38:34;;;;;;;4.80;2.55;;;;;;;16.99;46.98;103821.59;6080338;23;20013;-85
2023/02/08 08:40:59;;;;;;;2.88;2.17;;;;;;;17.06;46.62;103826.19;6152962;23;20006;-86
2023/02/08 08:43:24;;;;;;;3.88;2.38;;;;;;;17.07;46.51;103830.56;6128530;23;20049;-85
2023/02/08 08:45:50;;;;;;;4.80;2.55;;;;;;;17.12;46.31;103821.25;6128272;23;20002;-85
2023/02/08 08:48:15;;;;;;;3.55;2.33;;;;;;;17.12;46.24;103826.44;6104064;23;20034;-83
2023/02/08 08:50:41;;;;;;;3.78;2.13;;;;;;;17.14;46.25;103818.72;6103954;23;20351;-83
2023/02/08 08:53:07;;;;;;;4.03;2.25;;;;;;;17.13;46.23;103828.22;6128415;23;20014;-84
2023/02/08 08:55:33;;;;;;;3.60;2.50;;;;;;;17.15;46.01;103830.88;6127933;23;20014;-84
2023/02/08 08:57:58;;;;;;;3.75;2.47;;;;;;;17.13;46.05;103837.75;6079407;23;20014;-83
2023/02/08 09:00:23;;;;;;;2.95;2.05;;;;;;;17.13;46.01;103837.75;6079444;23;20060;-83
2023/02/08 09:02:49;;;;;;;2.25;1.88;;;;;;;17.14;46.02;103839.53;6056164;23;20061;-84
2023/02/08 09:05:14;;;;;;;2.42;2.05;;;;;;;17.12;46.13;103838.59;6079394;23;20129;-85
2023/02/08 09:07:40;;;;;;;3.22;2.50;;;;;;;17.13;46.03;103842.94;6104049;23;20002;-82
2023/02/08 09:10:05;;;;;;;2.80;2.20;;;;;;;17.13;45.96;103845.56;6079887;23;20020;-85
2023/02/08 09:12:31;;;;;;;3.30;2.47;;;;;;;17.13;45.96;103842.94;6103537;23;20439;-85
2023/02/08 09:14:56;;;;;;;3.05;2.20;;;;;;;17.12;45.94;103843.78;6055935;23;20093;-83
2023/02/08 09:17:21;;;;;;;4.28;2.45;;;;;;;17.12;45.85;103847.28;6103801;23;20016;-84
2023/02/08 09:19:47;;;;;;;4.05;1.98;;;;;;;17.13;45.93;103848.16;6079797;23;20400;-85
2023/02/08 09:22:12;;;;;;;3.47;2.30;;;;;;;17.11;45.97;103839.41;6103757;23;20016;-84
2023/02/08 09:24:38;;;;;;;2.95;2.08;;;;;;;17.11;45.71;103848.06;6055698;23;20013;-84
2023/02/08 09:27:04;;;;;;;3.85;2.05;;;;;;;17.11;46.15;103849.81;6103869;23;20061;-84
2023/02/08 09:29:31;;;;;;;3.30;2.17;;;;;;;17.11;45.98;103850.69;6079573;23;20013;-84
2023/02/08 09:31:57;;;;;;;3.85;2.40;;;;;;;17.11;45.77;103858.50;6079724;23;20013;-85
2023/02/08 09:34:22;;;;;;;2.85;2.00;;;;;;;17.11;46.21;103852.41;6079304;23;20014;-85
2023/02/08 09:36:48;;;;;;;3.25;2.08;;;;;;;17.10;45.84;103854.13;6128390;23;20010;-87
2023/02/08 09:39:16;;;;;;;3.15;1.92;;;;;;;17.10;46.04;103851.53;6055530;23;20427;-85
2023/02/08 09:42:00;;;;;;;2.47;1.88;;;;;;;17.11;45.86;103855.00;6103401;23;20056;-86
2023/02/08 09:44:56;;;;;;;4.10;2.17;;;;;;;17.10;45.90;103854.13;6103737;23;20102;-85
2023/02/08 09:47:43;;;;;;;2.75;2.30;;;;;;;17.10;45.71;103855.84;6127893;23;20010;-87
2023/02/08 09:50:36;;;;;;;3.08;2.38;;;;;;;17.08;45.88;103860.97;6102058;23;20025;-84
2023/02/08 09:53:10;;;;;;;3.53;2.47;;;;;;;17.08;45.87;103858.38;6128085;23;20014;-83
2023/02/08 09:55:41;;;;;;;3.15;2.00;;;;;;;17.09;45.87;103865.34;6103171;23;20014;-85
2023/02/08 09:58:18;;;;;;;3.30;2.22;;;;;;;17.09;45.98;103878.34;6129596;23;20021;-84
2023/02/08 10:00:49;;;;;;;2.60;1.90;;;;;;;17.09;45.78;103875.75;6121112;23;20006;-84
2023/02/08 10:03:31;;;;;;;4.65;2.22;;;;;;;17.09;45.64;103880.06;6128349;23;20001;-84
2023/02/08 10:05:57;;;;;;;2.90;2.30;;;;;;;17.08;45.93;103881.78;6149915;23;20010;-84
2023/02/08 10:08:23;;;;;;;2.95;2.00;;;;;;;17.09;46.06;103880.06;6076046;23;20010;-85
2023/02/08 10:11:01;;;;;;;3.53;2.17;;;;;;;17.09;45.95;103883.56;6106179;23;20007;-86
2023/02/08 10:13:42;;;;;;;3.05;2.28;;;;;;;17.09;45.86;103883.56;6104238;23;20542;-84
2023/02/08 10:16:52;;;;;;;2.63;1.90;;;;;;;17.08;45.99;103874.00;6128795;23;20010;-86
2023/02/08 10:19:23;;;;;;;2.53;2.00;;;;;;;17.09;45.98;103874.88;6076757;23;20009;-85
2023/02/08 10:22:12;;;;;;;2.80;2.00;;;;;;;17.08;45.75;103874.00;6130250;23;20010;-83
2023/02/08 10:24:46;;;;;;;2.35;2.05;;;;;;;17.09;45.90;103872.25;6128839;23;20002;-86
2023/02/08 10:27:16;;;;;;;3.38;2.22;;;;;;;17.09;45.83;103872.25;6129747;23;20005;-86
2023/02/08 10:30:02;;;;;;;2.67;1.90;;;;;;;17.08;45.79;103863.59;6127525;23;20324;-86
2023/02/08 10:33:00;;;;;;;6.05;2.33;;;;;;;17.09;45.81;103872.25;6103695;23;20014;-86
2023/02/08 10:35:36;;;;;;;3.10;2.05;;;;;;;17.09;45.52;103870.53;6129451;23;20415;-86
2023/02/08 10:38:16;;;;;;;2.92;2.22;;;;;;;17.10;45.63;103874.94;6103566;23;20006;-85
2023/02/08 10:40:42;;;;;;;3.22;2.30;;;;;;;17.10;45.60;103861.94;6103323;23;20040;-85
2023/02/08 10:43:35;;;;;;;3.35;2.22;;;;;;;17.11;46.09;103850.69;6055354;23;20073;-86
2023/02/08 10:46:31;;;;;;;3.22;2.10;;;;;;;17.11;45.86;103847.19;6103131;23;20482;-85
2023/02/08 10:49:20;;;;;;;2.80;2.10;;;;;;;17.11;45.65;103840.28;6127686;23;20010;-85
2023/02/08 10:51:46;;;;;;;2.38;2.17;;;;;;;17.12;45.87;103842.06;6128434;23;20018;-81
2023/02/08 10:54:13;;;;;;;3.30;2.03;;;;;;;17.11;45.72;103836.78;6101715;23;20045;-81
2023/02/08 10:56:44;;;;;;;2.85;2.00;;;;;;;17.11;45.79;103829.88;6102433;23;20470;-84
2023/02/08 10:59:41;;;;;;;2.20;1.90;;;;;;;17.12;45.58;103821.25;6136858;23;20386;-84
2023/02/08 11:02:30;;;;;;;2.78;2.03;;;;;;;17.12;45.83;103816.03;6093411;23;20041;-84
2023/02/08 11:05:03;;;;;;;2.42;1.95;;;;;;;17.13;45.61;103811.72;6128861;23;20034;-86
2023/02/08 11:07:29;;;;;;;2.33;2.00;;;;;;;17.13;45.62;103801.31;6127291;23;20103;-86
2023/02/08 11:10:13;;;;;;;2.70;2.00;;;;;;;17.14;45.61;103809.19;6127730;23;20009;-85
2023/02/08 11:12:40;;;;;;;3.00;2.22;;;;;;;17.15;45.36;103810.94;6127297;23;20449;-84
2023/02/08 11:15:21;;;;;;;3.05;2.08;;;;;;;17.15;45.30;103800.53;6103460;23;20014;-84
2023/02/08 11:17:53;;;;;;;2.95;1.90;;;;;;;17.16;45.72;103791.00;6128632;23;20002;-85
2023/02/08 11:20:39;;;;;;;2.83;2.00;;;;;;;17.16;45.61;103786.72;6127464;23;20006;-82
2023/02/08 11:23:22;;;;;;;2.67;2.10;;;;;;;17.16;45.73;103791.94;6126830;23;20014;-85
2023/02/08 11:25:47;;;;;;;2.90;2.20;;;;;;;17.17;45.70;103791.09;6127101;23;20005;-82
2023/02/08 11:28:24;;;;;;;2.45;1.85;;;;;;;17.17;45.49;103785.00;6126839;23;20510;-84
2023/02/08 11:30:58;;;;;;;2.40;2.05;;;;;;;17.17;45.49;103783.28;6153178;23;20011;-84
2023/02/08 11:33:26;;;;;;;2.17;1.85;;;;;;;17.18;45.58;103779.88;6126897;23;20006;-84
2023/02/08 11:35:55;;;;;;;2.22;1.73;;;;;;;17.20;45.19;103774.69;6127000;23;20010;-83
2023/02/08 11:38:26;;;;;;;2.60;2.08;;;;;;;17.21;45.54;103771.28;6127132;23;20002;-84